Alvy, West Virginia
Current Conditions -  °F | °C
As of 9:53 AM on Sunday 21 Dec 2014 (Local Time) from KCKB Reporting Station
Broken Clouds Broken Clouds  
Wind Chill: 33°   Ceiling: 3100
Heat Index: 33°   Visibility: 10mi
Dew Point: 25°   Wind: 0mph
Humidity: 72%   Direction: NA
Pressure: 30.31"   Gusts: NA
Location:  39.5266°N, 80.6428°W
Report Text: KCKB 211453Z 00000KT 10SM BKN031 BKN041 01/M04 A3031 RMK AO2 SLP269 T00061039 51006
Loading
Personal Weather Stations






























Interactive Weather Map New forecast layout! Learn more

10-Day Weather Forecast

Advertisements
Track Severe Weather on mobile